Time;durP1;ratioP1;P1;durP2;ratioP2;P2;SDS_P1;SDS_P2;PMS_P1;PMS_P2;Temp;Humidity;BMP_temperature;BMP_pressure;BME280_temperature;BME280_humidity;BME280_pressure;Samples;Min_cycle;Max_cycle;Signal;HPM_P1;HPM_P2
2023/01/27 00:00:59;;;;;;;9.35;2.42;;;4.50;89.70;;;;;;5016932;28;20106;-51
2023/01/27 00:03:29;;;;;;;9.50;2.00;;;4.50;89.60;;;;;;5013356;28;20041;-48
2023/01/27 00:05:57;;;;;;;6.43;1.83;;;4.50;89.50;;;;;;5026327;28;20083;-47
2023/01/27 00:08:28;;;;;;;6.13;1.98;;;4.50;89.40;;;;;;5035842;28;20034;-47
2023/01/27 00:13:42;;;;;;;5.03;2.08;;;4.50;89.00;;;;;;5025933;28;20060;-49
2023/01/27 00:16:09;;;;;;;6.13;1.80;;;4.50;89.00;;;;;;5031439;28;20026;-46
2023/01/27 00:18:37;;;;;;;6.35;1.60;;;4.50;88.80;;;;;;5013297;28;20026;-45
2023/01/27 00:26:36;;;;;;;4.10;2.03;;;4.60;87.10;;;;;;5029363;28;20077;-46
2023/01/27 00:29:03;;;;;;;5.47;1.38;;;4.60;86.60;;;;;;5012095;28;20054;-50
2023/01/27 00:34:18;;;;;;;3.78;1.55;;;4.60;87.00;;;;;;5013173;28;20020;-49
2023/01/27 00:36:45;;;;;;;4.65;2.88;;;4.60;87.60;;;;;;5012702;28;20054;-47
2023/01/27 00:39:13;;;;;;;10.70;2.50;;;4.60;88.10;;;;;;5012896;28;20530;-50
2023/01/27 00:41:40;;;;;;;7.20;2.30;;;4.60;88.50;;;;;;5012564;28;20025;-50
2023/01/27 00:44:11;;;;;;;6.40;1.60;;;4.60;88.60;;;;;;5003470;28;20370;-47
2023/01/27 00:46:40;;;;;;;8.50;2.05;;;4.50;88.60;;;;;;5015509;28;20018;-49
2023/01/27 00:49:09;;;;;;;5.60;2.00;;;4.60;88.70;;;;;;5025115;28;20045;-48
2023/01/27 00:51:37;;;;;;;7.65;1.90;;;4.50;88.40;;;;;;5012684;28;20038;-48
2023/01/27 00:54:05;;;;;;;7.85;1.90;;;4.50;88.40;;;;;;5031448;28;20025;-48
2023/01/27 00:56:33;;;;;;;6.03;1.88;;;4.50;88.20;;;;;;5031055;28;20025;-47
2023/01/27 00:59:09;;;;;;;3.42;1.63;;;4.60;88.00;;;;;;5017924;28;20045;-48
2023/01/27 01:01:40;;;;;;;5.03;1.80;;;4.50;87.60;;;;;;5011463;28;20052;-47
2023/01/27 01:04:07;;;;;;;6.07;1.80;;;4.50;87.30;;;;;;5031374;28;20033;-48
2023/01/27 01:06:37;;;;;;;2.92;1.50;;;4.50;87.00;;;;;;5048909;28;20343;-51
2023/01/27 01:09:06;;;;;;;6.75;1.88;;;4.50;87.00;;;;;;5029550;28;20045;-49
2023/01/27 01:11:33;;;;;;;7.55;1.95;;;4.50;87.10;;;;;;5047111;28;20068;-47
2023/01/27 01:14:00;;;;;;;3.03;1.55;;;4.50;87.20;;;;;;5021273;28;20044;-46
2023/01/27 01:16:26;;;;;;;3.85;1.45;;;4.50;87.10;;;;;;5028211;28;20454;-47
2023/01/27 01:18:54;;;;;;;6.47;2.28;;;4.50;86.60;;;;;;5031196;28;20464;-49
2023/01/27 01:21:22;;;;;;;2.97;1.52;;;4.50;86.70;;;;;;5024592;28;20037;-47
2023/01/27 01:23:50;;;;;;;10.68;3.50;;;4.50;86.70;;;;;;5012534;28;20030;-46
2023/01/27 01:26:17;;;;;;;7.32;2.40;;;4.40;86.60;;;;;;5011851;28;20034;-48
2023/01/27 01:28:44;;;;;;;6.40;1.95;;;4.40;86.70;;;;;;5011537;28;20026;-47
2023/01/27 01:31:18;;;;;;;8.07;2.42;;;4.50;86.90;;;;;;5012604;28;20038;-53
2023/01/27 01:33:47;;;;;;;4.63;1.30;;;4.40;86.60;;;;;;5022803;28;20467;-48
2023/01/27 01:36:20;;;;;;;4.15;1.63;;;4.50;86.40;;;;;;5052168;28;20155;-47
2023/01/27 01:38:55;;;;;;;3.67;1.35;;;4.40;86.30;;;;;;5018687;28;20021;-48
2023/01/27 01:41:24;;;;;;;5.25;1.70;;;4.40;86.60;;;;;;5035013;28;20122;-47
2023/01/27 01:43:51;;;;;;;6.45;1.33;;;4.40;86.20;;;;;;5025704;28;20026;-51
2023/01/27 01:46:27;;;;;;;9.20;1.63;;;4.40;86.10;;;;;;5034752;28;20033;-49
2023/01/27 01:49:02;;;;;;;4.38;1.63;;;4.40;86.20;;;;;;5034952;28;20117;-47
2023/01/27 01:51:42;;;;;;;4.22;1.17;;;4.40;86.10;;;;;;5037007;28;20037;-47
2023/01/27 01:54:29;;;;;;;5.45;1.35;;;4.40;85.80;;;;;;5029794;28;20030;-50
2023/01/27 01:57:15;;;;;;;3.83;1.33;;;4.40;86.10;;;;;;5021204;28;20025;-52
2023/01/27 01:59:59;;;;;;;4.90;1.50;;;4.40;86.10;;;;;;5051440;28;20183;-48
2023/01/27 02:02:30;;;;;;;3.28;1.30;;;4.40;85.50;;;;;;5030279;28;20116;-51
2023/01/27 02:05:04;;;;;;;2.67;1.23;;;4.40;85.50;;;;;;5038603;28;20041;-48
2023/01/27 02:08:04;;;;;;;8.20;1.80;;;4.40;84.80;;;;;;5043251;28;20477;-50
2023/01/27 02:10:33;;;;;;;2.78;1.27;;;4.40;84.60;;;;;;5023394;28;20054;-53
2023/01/27 02:13:00;;;;;;;4.47;1.45;;;4.40;84.70;;;;;;5032127;28;20411;-49
2023/01/27 02:15:30;;;;;;;7.25;1.65;;;4.40;84.70;;;;;;5033585;28;20498;-50
2023/01/27 02:17:59;;;;;;;4.70;1.27;;;4.40;84.90;;;;;;5031636;28;20461;-49
2023/01/27 02:20:46;;;;;;;3.43;1.27;;;4.40;85.00;;;;;;5028131;28;20044;-52
2023/01/27 02:23:38;;;;;;;5.15;1.75;;;4.40;85.70;;;;;;5034392;28;20260;-47
2023/01/27 02:26:22;;;;;;;5.53;1.83;;;4.40;86.50;;;;;;5017909;28;20072;-51
2023/01/27 02:28:58;;;;;;;5.68;1.88;;;4.40;87.10;;;;;;5021436;28;20037;-53
2023/01/27 02:31:24;;;;;;;8.93;1.52;;;4.30;87.30;;;;;;5033554;28;20052;-51
2023/01/27 02:33:54;;;;;;;6.30;1.92;;;4.30;87.50;;;;;;5015614;28;20552;-48
2023/01/27 02:36:21;;;;;;;6.80;2.15;;;4.30;87.80;;;;;;5013966;28;20061;-47
2023/01/27 02:39:07;;;;;;;3.80;1.60;;;4.30;88.00;;;;;;5013589;28;20072;-48
2023/01/27 02:41:34;;;;;;;5.20;1.70;;;4.20;87.60;;;;;;5014761;28;20040;-50
2023/01/27 02:44:02;;;;;;;9.48;1.60;;;4.30;87.40;;;;;;5024081;28;20450;-50
2023/01/27 02:46:30;;;;;;;3.50;1.20;;;4.20;86.70;;;;;;5035487;28;20029;-47
2023/01/27 02:48:57;;;;;;;6.15;1.33;;;4.20;86.10;;;;;;5021605;28;20032;-50
2023/01/27 02:51:24;;;;;;;4.97;1.60;;;4.20;86.10;;;;;;5013181;28;20045;-51
2023/01/27 02:53:52;;;;;;;1.75;0.98;;;4.20;86.50;;;;;;5013677;28;20486;-45
2023/01/27 02:56:21;;;;;;;2.05;0.95;;;4.20;86.20;;;;;;5016739;28;20022;-47
2023/01/27 02:58:47;;;;;;;2.65;1.13;;;4.20;86.30;;;;;;5035277;28;20079;-50
2023/01/27 03:01:14;;;;;;;2.35;1.08;;;4.10;86.40;;;;;;5033027;28;20041;-49
2023/01/27 03:03:46;;;;;;;2.25;1.10;;;4.10;86.50;;;;;;5042772;28;20044;-47
2023/01/27 03:06:13;;;;;;;8.75;1.48;;;4.20;86.30;;;;;;5033313;28;20045;-46
2023/01/27 03:08:40;;;;;;;6.80;1.40;;;4.10;86.40;;;;;;5019429;28;20355;-47
2023/01/27 03:11:07;;;;;;;8.48;2.70;;;4.10;86.70;;;;;;4997088;28;20034;-48
2023/01/27 03:13:36;;;;;;;10.32;1.60;;;4.20;86.80;;;;;;5014059;28;20136;-47
2023/01/27 03:18:52;;;;;;;6.13;1.30;;;4.20;87.00;;;;;;5014448;28;20057;-48
2023/01/27 03:21:19;;;;;;;3.15;1.42;;;4.20;87.20;;;;;;5047078;28;20413;-47
2023/01/27 03:23:49;;;;;;;4.05;1.88;;;4.20;87.20;;;;;;5052954;28;20354;-46
2023/01/27 03:26:17;;;;;;;4.75;1.60;;;4.20;87.60;;;;;;5037266;28;20168;-47
2023/01/27 03:29:53;;;;;;;4.57;1.58;;;4.20;87.60;;;;;;5013499;28;20359;-49
2023/01/27 03:31:33;;;;;;;5.43;1.77;;;4.20;87.60;;;;;;5013839;28;20042;-47
2023/01/27 03:33:59;;;;;;;3.55;1.50;;;4.30;87.90;;;;;;5044980;28;20032;-49
2023/01/27 03:47:26;;;;;;;7.07;2.30;;;4.20;88.10;;;;;;5031745;28;20055;-47
2023/01/27 03:49:53;;;;;;;9.43;2.60;;;4.10;88.10;;;;;;5045641;28;20036;-49
2023/01/27 03:52:20;;;;;;;3.17;1.25;;;4.10;87.90;;;;;;5044519;28;20018;-46
2023/01/27 03:54:48;;;;;;;3.45;1.60;;;4.10;88.00;;;;;;5022661;28;20045;-49
2023/01/27 03:57:16;;;;;;;4.57;1.65;;;4.00;88.00;;;;;;5032388;28;20102;-46
2023/01/27 03:59:48;;;;;;;5.85;1.80;;;4.00;88.10;;;;;;5027662;28;20065;-50
2023/01/27 04:07:45;;;;;;;6.57;1.83;;;4.10;88.20;;;;;;5013448;28;20056;-49
2023/01/27 04:10:13;;;;;;;6.43;1.83;;;4.00;88.50;;;;;;5012026;28;20097;-48
2023/01/27 04:12:44;;;;;;;8.23;2.20;;;4.00;88.70;;;;;;5013461;28;20053;-50
2023/01/27 04:15:09;;;;;;;5.35;1.50;;;4.00;88.60;;;;;;5028642;28;20034;-50
2023/01/27 04:17:39;;;;;;;6.15;1.67;;;4.00;88.80;;;;;;5012202;28;20045;-47
2023/01/27 04:20:10;;;;;;;7.07;1.85;;;4.00;89.00;;;;;;5013158;28;20030;-51
2023/01/27 04:22:38;;;;;;;6.93;2.20;;;3.90;88.90;;;;;;5012145;28;20665;-49
2023/01/27 04:25:08;;;;;;;4.80;1.67;;;3.90;88.90;;;;;;5013008;28;20119;-48
2023/01/27 04:27:35;;;;;;;5.15;1.35;;;3.90;89.10;;;;;;5011725;28;20112;-49
2023/01/27 04:30:03;;;;;;;6.03;1.63;;;3.90;89.30;;;;;;5013256;28;20037;-49
2023/01/27 04:32:30;;;;;;;7.88;1.90;;;3.80;89.60;;;;;;5029409;28;20032;-47
2023/01/27 04:34:59;;;;;;;7.90;2.10;;;3.90;89.60;;;;;;5031523;28;20018;-46
2023/01/27 04:37:25;;;;;;;7.95;2.03;;;3.80;89.80;;;;;;5032560;28;20020;-47
2023/01/27 04:39:52;;;;;;;7.25;1.67;;;3.70;89.70;;;;;;5020232;28;20440;-48
2023/01/27 04:42:19;;;;;;;3.80;2.30;;;3.70;89.80;;;;;;5018289;28;20025;-51
2023/01/27 04:44:46;;;;;;;5.15;2.20;;;3.70;90.00;;;;;;5012920;28;20030;-46
2023/01/27 04:47:13;;;;;;;11.98;3.72;;;3.70;90.00;;;;;;5012363;28;20048;-49
2023/01/27 04:49:41;;;;;;;7.28;1.98;;;3.70;90.00;;;;;;5012940;28;20025;-48
2023/01/27 04:52:08;;;;;;;3.53;1.77;;;3.70;90.40;;;;;;5012624;28;20030;-50
2023/01/27 04:54:35;;;;;;;5.00;1.80;;;3.70;90.50;;;;;;5012226;28;20044;-51
2023/01/27 04:57:05;;;;;;;10.00;3.45;;;3.70;90.50;;;;;;5027156;28;20064;-48
2023/01/27 04:59:31;;;;;;;6.43;2.00;;;3.60;90.60;;;;;;5031068;28;20021;-48
2023/01/27 05:01:58;;;;;;;7.00;2.58;;;3.60;90.80;;;;;;5028204;28;20044;-52
2023/01/27 05:04:26;;;;;;;6.32;2.25;;;3.60;90.80;;;;;;5029536;28;20021;-51
2023/01/27 05:06:53;;;;;;;7.28;2.38;;;3.60;90.90;;;;;;5030930;28;20091;-51
2023/01/27 05:09:19;;;;;;;6.22;2.42;;;3.60;91.00;;;;;;5030597;28;20152;-50
2023/01/27 05:11:46;;;;;;;6.13;2.40;;;3.60;91.00;;;;;;5029927;28;20124;-50
2023/01/27 05:14:12;;;;;;;4.50;2.25;;;3.60;90.90;;;;;;5032669;28;20108;-51
2023/01/27 05:16:39;;;;;;;4.40;2.17;;;3.60;90.80;;;;;;5033471;28;20462;-46
2023/01/27 05:19:07;;;;;;;7.32;2.97;;;3.60;90.80;;;;;;5032032;28;20091;-48
2023/01/27 05:21:35;;;;;;;6.22;2.22;;;3.60;90.80;;;;;;5026815;28;20041;-46
2023/01/27 05:24:03;;;;;;;11.60;4.05;;;3.60;90.80;;;;;;5016288;28;20026;-45
2023/01/27 05:26:29;;;;;;;5.07;2.50;;;3.60;90.90;;;;;;5016240;28;20033;-50
2023/01/27 05:29:07;;;;;;;10.05;2.88;;;3.50;90.90;;;;;;5016314;28;20026;-48
2023/01/27 05:31:32;;;;;;;3.97;2.17;;;3.60;91.00;;;;;;5016234;28;20113;-48
2023/01/27 05:34:01;;;;;;;7.60;1.75;;;3.50;91.00;;;;;;5015349;28;20116;-47
2023/01/27 05:36:29;;;;;;;8.38;2.20;;;3.60;91.10;;;;;;5016304;28;20108;-47
2023/01/27 05:38:55;;;;;;;10.65;2.85;;;3.60;91.10;;;;;;5023217;28;20038;-49
2023/01/27 05:41:23;;;;;;;8.85;2.30;;;3.60;91.00;;;;;;5016195;28;20152;-46
2023/01/27 05:43:55;;;;;;;7.18;2.45;;;3.60;91.00;;;;;;5015116;28;20034;-47
2023/01/27 05:46:24;;;;;;;4.30;2.40;;;3.60;91.00;;;;;;5015319;28;20044;-47
2023/01/27 05:48:58;;;;;;;7.57;2.20;;;3.50;90.90;;;;;;5015963;28;20382;-47
2023/01/27 05:51:29;;;;;;;5.85;2.83;;;3.60;90.90;;;;;;5014976;28;20076;-47
2023/01/27 05:53:57;;;;;;;4.20;1.98;;;3.60;90.90;;;;;;5015038;28;20033;-53
2023/01/27 05:56:27;;;;;;;4.10;2.00;;;3.60;90.90;;;;;;5014675;28;20022;-47
2023/01/27 05:58:55;;;;;;;9.48;2.70;;;3.60;90.90;;;;;;5014733;28;20408;-48
2023/01/27 06:01:26;;;;;;;6.45;2.40;;;3.60;90.80;;;;;;5032730;28;20095;-48
2023/01/27 06:04:06;;;;;;;5.43;2.75;;;3.50;90.70;;;;;;5016609;28;20041;-47
2023/01/27 06:06:32;;;;;;;6.68;2.75;;;3.50;90.70;;;;;;5022236;28;20030;-47
2023/01/27 06:09:02;;;;;;;8.63;3.10;;;3.50;90.70;;;;;;5013913;28;20061;-46
2023/01/27 06:11:27;;;;;;;8.32;3.13;;;3.50;90.70;;;;;;5014824;28;20535;-47
2023/01/27 06:13:53;;;;;;;10.90;3.95;;;3.50;90.70;;;;;;5014119;28;20117;-46
2023/01/27 06:16:21;;;;;;;7.25;3.40;;;3.50;90.80;;;;;;5013722;28;20030;-46
2023/01/27 06:18:50;;;;;;;8.02;3.28;;;3.50;90.90;;;;;;5014005;28;20034;-47
2023/01/27 06:21:19;;;;;;;5.68;2.28;;;3.50;91.00;;;;;;5036687;28;20083;-47
2023/01/27 06:23:47;;;;;;;8.40;3.08;;;3.50;91.00;;;;;;5020638;28;20045;-47
2023/01/27 06:26:20;;;;;;;2.97;1.80;;;3.50;91.00;;;;;;5034628;28;20099;-49
2023/01/27 06:28:48;;;;;;;5.45;2.58;;;3.50;91.00;;;;;;5045665;28;20036;-49
2023/01/27 06:31:20;;;;;;;8.32;2.53;;;3.50;91.00;;;;;;5045431;28;20033;-47
2023/01/27 06:33:52;;;;;;;6.85;3.22;;;3.60;91.00;;;;;;5014401;28;20456;-45
2023/01/27 06:36:20;;;;;;;9.98;2.30;;;3.60;90.90;;;;;;5014155;28;20467;-46
2023/01/27 06:38:49;;;;;;;4.00;2.25;;;3.60;90.70;;;;;;5015021;28;20025;-47
2023/01/27 06:41:14;;;;;;;5.65;1.90;;;3.60;90.60;;;;;;5014846;28;20030;-47
2023/01/27 06:43:41;;;;;;;4.78;2.17;;;3.60;90.50;;;;;;5023382;28;20048;-49
2023/01/27 06:46:08;;;;;;;4.30;2.10;;;3.60;90.10;;;;;;5033694;28;20398;-48
2023/01/27 06:48:36;;;;;;;5.85;1.90;;;3.60;89.60;;;;;;5026486;28;20041;-47
2023/01/27 06:51:06;;;;;;;2.92;1.80;;;3.50;89.00;;;;;;5014592;28;20030;-47
2023/01/27 06:53:36;;;;;;;6.93;2.07;;;3.60;89.10;;;;;;5035752;28;20053;-51
2023/01/27 06:56:01;;;;;;;3.42;2.13;;;3.60;89.20;;;;;;5034540;28;20566;-47
2023/01/27 06:58:31;;;;;;;5.25;2.50;;;3.60;88.80;;;;;;5035265;28;20022;-47
2023/01/27 07:01:01;;;;;;;4.15;2.38;;;3.60;88.70;;;;;;5024062;28;20021;-47
2023/01/27 07:03:29;;;;;;;4.45;2.70;;;3.60;88.60;;;;;;5034852;28;20056;-47
2023/01/27 07:05:57;;;;;;;4.40;2.90;;;3.60;88.80;;;;;;5033330;28;20036;-47
2023/01/27 07:08:24;;;;;;;3.45;2.38;;;3.60;88.90;;;;;;5028650;28;20040;-47
2023/01/27 07:10:50;;;;;;;7.57;3.58;;;3.60;89.10;;;;;;5015895;28;20042;-47
2023/01/27 07:13:17;;;;;;;12.15;3.22;;;3.60;89.00;;;;;;5028384;28;20475;-48
2023/01/27 07:15:46;;;;;;;7.45;2.83;;;3.60;88.90;;;;;;5033730;28;20366;-46
2023/01/27 07:18:13;;;;;;;8.85;3.60;;;3.60;88.80;;;;;;5032505;28;20026;-47
2023/01/27 07:20:40;;;;;;;5.53;3.40;;;3.70;88.70;;;;;;5031098;28;20045;-49
2023/01/27 07:23:08;;;;;;;8.63;3.95;;;3.60;88.60;;;;;;5025455;28;20033;-47
2023/01/27 07:25:36;;;;;;;4.38;2.60;;;3.60;88.40;;;;;;5032154;28;20037;-50
2023/01/27 07:28:03;;;;;;;5.35;2.63;;;3.60;88.30;;;;;;5030401;28;20037;-47
2023/01/27 07:30:34;;;;;;;6.20;2.90;;;3.60;88.20;;;;;;5032244;28;20026;-49
2023/01/27 07:33:03;;;;;;;5.60;2.88;;;3.60;88.00;;;;;;5025016;28;20076;-51
2023/01/27 07:35:30;;;;;;;;;;;3.60;88.00;;;;;;5023028;28;20025;-49
2023/01/27 07:37:57;;;;;;;4.20;2.40;;;3.60;88.00;;;;;;5024029;28;19951;-47
2023/01/27 07:40:25;;;;;;;5.68;3.15;;;3.60;87.80;;;;;;5025984;28;20454;-50
2023/01/27 07:42:51;;;;;;;16.83;6.70;;;3.60;88.30;;;;;;5026819;28;20112;-52
2023/01/27 07:45:18;;;;;;;5.38;3.20;;;3.70;88.60;;;;;;5022914;28;20137;-46
2023/01/27 07:47:44;;;;;;;5.93;2.85;;;3.60;88.70;;;;;;5033350;28;20068;-48
2023/01/27 07:50:16;;;;;;;8.07;2.92;;;3.60;88.80;;;;;;5020338;28;20529;-52
2023/01/27 07:52:42;;;;;;;6.80;2.42;;;3.60;88.70;;;;;;5031851;28;20029;-51
2023/01/27 07:55:09;;;;;;;8.38;3.47;;;3.70;88.70;;;;;;5029909;28;20029;-49
2023/01/27 07:57:35;;;;;;;3.83;2.40;;;3.70;88.80;;;;;;5031883;28;20064;-50
2023/01/27 08:00:04;;;;;;;4.80;3.08;;;3.70;88.80;;;;;;5030168;28;20037;-50
2023/01/27 08:02:32;;;;;;;5.25;2.78;;;3.70;88.80;;;;;;5030077;28;20037;-47
2023/01/27 08:04:59;;;;;;;6.05;3.13;;;3.70;89.00;;;;;;5031350;28;20455;-47
2023/01/27 08:07:25;;;;;;;4.45;3.22;;;3.70;88.80;;;;;;5032583;28;20040;-47
2023/01/27 08:09:53;;;;;;;5.40;2.50;;;3.70;88.60;;;;;;5032033;28;20065;-48
2023/01/27 08:12:21;;;;;;;3.92;2.50;;;3.70;88.50;;;;;;5029730;28;20413;-47
2023/01/27 08:14:48;;;;;;;5.80;2.42;;;3.70;88.30;;;;;;5024406;28;20092;-47
2023/01/27 08:17:17;;;;;;;6.90;2.60;;;3.70;88.10;;;;;;5030427;28;20021;-47
2023/01/27 08:19:45;;;;;;;3.58;2.53;;;3.70;88.10;;;;;;5031825;28;20378;-47
2023/01/27 08:22:18;;;;;;;3.50;2.15;;;3.70;88.20;;;;;;5031729;28;20120;-46
2023/01/27 08:24:45;;;;;;;3.42;2.03;;;3.70;87.40;;;;;;5017931;28;20030;-48
2023/01/27 08:27:16;;;;;;;3.05;1.67;;;3.70;87.10;;;;;;5011066;28;20080;-49
2023/01/27 08:29:44;;;;;;;3.95;2.20;;;3.70;87.20;;;;;;5012208;28;20344;-47
2023/01/27 08:32:11;;;;;;;5.60;2.22;;;3.70;87.50;;;;;;5012022;28;20026;-50
2023/01/27 08:34:39;;;;;;;6.13;2.55;;;3.80;87.60;;;;;;5011977;28;20061;-47
2023/01/27 08:37:07;;;;;;;5.35;1.90;;;3.80;87.80;;;;;;5018832;28;20109;-47
2023/01/27 08:39:34;;;;;;;24.25;3.33;;;3.80;88.00;;;;;;5005388;28;20022;-46
2023/01/27 08:42:00;;;;;;;3.38;1.90;;;3.80;87.70;;;;;;5021391;28;20021;-50
2023/01/27 08:44:27;;;;;;;3.00;2.03;;;3.70;87.10;;;;;;5020465;28;20150;-49
2023/01/27 08:46:56;;;;;;;4.25;2.10;;;3.80;87.30;;;;;;5023429;28;20079;-48
2023/01/27 08:49:23;;;;;;;3.28;1.90;;;3.80;87.60;;;;;;5020651;28;20038;-47
2023/01/27 08:51:50;;;;;;;3.20;1.75;;;3.90;87.50;;;;;;5020643;28;20076;-47
2023/01/27 08:54:17;;;;;;;2.95;1.92;;;3.90;87.40;;;;;;5023255;28;20022;-47
2023/01/27 08:56:43;;;;;;;2.88;1.67;;;3.90;87.50;;;;;;5023958;28;20037;-47
2023/01/27 08:59:12;;;;;;;4.82;1.85;;;3.90;87.60;;;;;;5020625;28;20040;-47
2023/01/27 09:01:40;;;;;;;3.72;1.70;;;3.90;88.00;;;;;;5023111;28;20091;-47
2023/01/27 09:04:08;;;;;;;5.10;2.35;;;3.90;88.30;;;;;;5017624;28;20363;-50
2023/01/27 09:06:37;;;;;;;3.65;2.42;;;3.90;88.60;;;;;;5018683;28;20517;-50
2023/01/27 09:09:14;;;;;;;3.40;2.25;;;3.80;88.90;;;;;;4988626;28;1150452;-49
2023/01/27 09:11:50;;;;;;;4.47;2.40;;;3.90;89.30;;;;;;5029336;28;20033;-48
2023/01/27 09:14:19;;;;;;;5.28;2.45;;;3.90;89.60;;;;;;5030902;28;20057;-47
2023/01/27 09:16:46;;;;;;;;;;;3.90;89.90;;;;;;5029750;28;20436;-47
2023/01/27 09:19:18;;;;;;;4.63;2.50;;;3.90;90.10;;;;;;5029298;28;20232;-48
2023/01/27 09:21:45;;;;;;;4.82;2.35;;;3.90;90.10;;;;;;5028480;28;20026;-47
2023/01/27 09:24:16;;;;;;;3.83;2.33;;;3.90;90.00;;;;;;5031428;28;20120;-49
2023/01/27 09:26:46;;;;;;;4.78;2.20;;;4.00;89.90;;;;;;5028878;28;20037;-48
2023/01/27 09:29:12;;;;;;;10.80;4.55;;;4.00;89.90;;;;;;5025105;28;20042;-49
2023/01/27 09:31:42;;;;;;;4.90;2.25;;;4.00;89.80;;;;;;5018524;28;20041;-47
2023/01/27 09:34:09;;;;;;;;;;;4.00;90.00;;;;;;5031365;28;20082;-52
2023/01/27 09:36:43;;;;;;;11.80;7.32;;;4.10;89.80;;;;;;5023004;28;20381;-46
2023/01/27 09:39:10;;;;;;;5.97;3.85;;;4.10;89.80;;;;;;5012278;28;20034;-48
2023/01/27 09:41:55;;;;;;;20.17;14.02;;;4.10;89.70;;;;;;5011181;28;20038;-47
2023/01/27 09:44:51;;;;;;;29.15;14.38;;;4.00;89.90;;;;;;5023197;28;20044;-47
2023/01/27 09:48:00;;;;;;;34.45;11.15;;;3.90;90.40;;;;;;5012186;28;20451;-48
2023/01/27 09:50:29;;;;;;;20.40;6.35;;;4.00;90.60;;;;;;5029574;28;20072;-46
2023/01/27 09:53:16;;;;;;;5.47;3.53;;;3.90;90.60;;;;;;5021162;28;20049;-46
2023/01/27 09:55:50;;;;;;;7.45;2.53;;;3.90;90.30;;;;;;5029933;28;20037;-46
2023/01/27 09:58:38;;;;;;;7.70;2.88;;;3.90;90.50;;;;;;5031054;28;20032;-48
2023/01/27 10:01:25;;;;;;;6.25;2.50;;;3.80;90.30;;;;;;5022368;28;20025;-47
2023/01/27 10:04:25;;;;;;;6.53;2.20;;;3.90;90.30;;;;;;5015365;28;20821;-46
2023/01/27 10:07:10;;;;;;;3.70;2.40;;;3.90;90.00;;;;;;5034172;28;20037;-47
2023/01/27 10:09:56;;;;;;;3.08;2.13;;;3.80;90.10;;;;;;5015638;28;20045;-50
2023/01/27 10:12:59;;;;;;;3.58;2.00;;;3.90;90.10;;;;;;5034773;28;20021;-48
2023/01/27 10:15:52;;;;;;;4.93;2.50;;;3.90;90.10;;;;;;5034712;28;20505;-46
2023/01/27 10:18:42;;;;;;;5.20;2.38;;;3.90;89.90;;;;;;5034939;28;20033;-47
2023/01/27 10:21:22;;;;;;;;;;;3.80;89.70;;;;;;5020350;28;20624;-46
2023/01/27 10:24:03;;;;;;;4.38;1.95;;;3.80;89.90;;;;;;5015224;28;19909;-48
2023/01/27 10:26:51;;;;;;;2.33;1.48;;;3.80;90.00;;;;;;5017914;28;20029;-48
2023/01/27 10:29:44;;;;;;;7.85;2.08;;;3.70;89.70;;;;;;5032089;28;20037;-51
2023/01/27 10:32:25;;;;;;;4.47;1.80;;;3.70;89.80;;;;;;5023499;28;20037;-50
2023/01/27 10:35:36;;;;;;;3.00;1.92;;;3.70;89.60;;;;;;5023843;28;20041;-48
2023/01/27 10:38:30;;;;;;;5.80;1.80;;;3.70;89.40;;;;;;5029206;28;20045;-48
2023/01/27 10:41:16;;;;;;;8.38;2.63;;;3.60;89.60;;;;;;5030103;28;20033;-48
2023/01/27 10:44:08;;;;;;;4.75;1.63;;;3.70;89.90;;;;;;5031132;28;20087;-49
2023/01/27 10:47:08;;;;;;;5.53;2.70;;;3.70;90.10;;;;;;5029834;28;20026;-48
2023/01/27 10:49:52;;;;;;;3.03;1.42;;;3.70;90.20;;;;;;5019360;28;20021;-46
2023/01/27 10:52:26;;;;;;;4.93;1.88;;;3.70;90.20;;;;;;5000348;28;20022;-47
2023/01/27 10:55:13;;;;;;;3.58;1.70;;;3.70;90.40;;;;;;5022239;28;20036;-47
2023/01/27 10:57:53;;;;;;;8.88;6.22;;;3.70;89.90;;;;;;5013754;28;20049;-46
2023/01/27 11:00:44;;;;;;;8.50;5.72;;;3.70;89.80;;;;;;5012946;28;20033;-46
2023/01/27 11:03:22;;;;;;;7.00;4.38;;;3.80;89.80;;;;;;5031408;28;20179;-47
2023/01/27 11:05:57;;;;;;;4.45;2.72;;;3.80;89.60;;;;;;5021956;28;20086;-47
2023/01/27 11:08:27;;;;;;;4.68;3.08;;;3.90;89.60;;;;;;5032875;28;20485;-46
2023/01/27 11:14:01;;;;;;;3.33;1.25;;;3.90;89.30;;;;;;5033001;28;20060;-45
2023/01/27 11:16:33;;;;;;;2.85;1.48;;;3.90;89.00;;;;;;5017611;28;20034;-46
2023/01/27 11:19:17;;;;;;;6.68;2.10;;;4.00;89.10;;;;;;5031316;28;20053;-46
2023/01/27 11:21:43;;;;;;;4.25;2.17;;;4.00;88.90;;;;;;5021095;28;20033;-47
2023/01/27 11:24:40;;;;;;;3.95;2.17;;;3.90;88.70;;;;;;5012317;28;20084;-46
2023/01/27 11:27:42;;;;;;;3.55;2.08;;;3.90;89.10;;;;;;5024279;28;20047;-45
2023/01/27 11:30:21;;;;;;;2.58;1.50;;;3.80;89.00;;;;;;5024586;28;20049;-45
2023/01/27 11:32:54;;;;;;;2.45;1.30;;;3.80;89.10;;;;;;5024094;28;20034;-48
2023/01/27 11:35:24;;;;;;;2.60;1.60;;;3.70;88.50;;;;;;5030822;28;20037;-45
2023/01/27 11:37:52;;;;;;;2.38;1.42;;;3.80;88.50;;;;;;5029840;28;20029;-45
2023/01/27 11:40:34;;;;;;;2.97;1.70;;;3.70;88.20;;;;;;5031457;28;20087;-50
2023/01/27 11:43:01;;;;;;;3.03;1.63;;;3.70;87.80;;;;;;5023218;28;20120;-45
2023/01/27 11:45:36;;;;;;;6.75;1.90;;;3.70;87.60;;;;;;5032302;28;20044;-45
2023/01/27 11:48:13;;;;;;;5.45;2.13;;;3.70;87.30;;;;;;5032115;28;20041;-52
2023/01/27 11:50:42;;;;;;;6.28;4.90;;;3.70;87.60;;;;;;5030429;28;20371;-46
2023/01/27 11:53:38;;;;;;;2.93;2.13;;;3.70;87.20;;;;;;5031394;28;20033;-47
2023/01/27 11:56:19;;;;;;;3.03;1.88;;;3.70;87.40;;;;;;5023438;28;20034;-47
2023/01/27 11:59:07;;;;;;;4.07;3.17;;;3.80;87.30;;;;;;5012124;28;20044;-48
2023/01/27 12:01:51;;;;;;;3.40;2.55;;;3.80;86.90;;;;;;5027685;28;20824;-46
2023/01/27 12:04:52;;;;;;;5.43;2.35;;;3.90;87.00;;;;;;5014983;28;20050;-49
2023/01/27 12:07:20;;;;;;;3.20;2.70;;;3.90;86.90;;;;;;5019642;28;20041;-49
2023/01/27 12:09:48;;;;;;;7.78;2.80;;;4.00;86.50;;;;;;5026560;28;20434;-46
2023/01/27 12:12:22;;;;;;;7.03;2.15;;;4.00;86.70;;;;;;5024162;28;20060;-50
2023/01/27 12:14:53;;;;;;;3.70;2.60;;;4.20;86.50;;;;;;5021030;28;20037;-47
2023/01/27 12:17:41;;;;;;;3.28;2.67;;;4.20;86.30;;;;;;5027094;28;20041;-50
2023/01/27 12:20:28;;;;;;;7.68;3.08;;;4.10;86.30;;;;;;5029234;28;20153;-47
2023/01/27 12:23:22;;;;;;;2.95;1.70;;;4.10;86.00;;;;;;5032107;28;20022;-47
2023/01/27 12:25:58;;;;;;;3.35;1.58;;;4.10;85.80;;;;;;5020761;28;20053;-47
2023/01/27 12:28:30;;;;;;;2.78;1.90;;;4.00;85.60;;;;;;5007696;28;20359;-48
2023/01/27 12:31:08;;;;;;;3.25;1.85;;;4.00;85.40;;;;;;5018362;28;20037;-47
2023/01/27 12:33:43;;;;;;;4.13;1.90;;;4.00;85.10;;;;;;5027156;28;20029;-49
2023/01/27 12:36:24;;;;;;;2.28;1.55;;;4.00;84.90;;;;;;5030645;28;20083;-50
2023/01/27 12:39:03;;;;;;;3.03;1.40;;;4.10;84.80;;;;;;4999814;28;20051;-49
2023/01/27 12:41:36;;;;;;;2.40;1.23;;;4.00;84.80;;;;;;5032553;28;20580;-45
2023/01/27 12:44:26;;;;;;;3.25;1.60;;;4.10;84.70;;;;;;5031459;28;20044;-50
2023/01/27 12:47:03;;;;;;;2.17;1.23;;;4.10;84.90;;;;;;5012614;28;20045;-47
2023/01/27 12:49:34;;;;;;;2.50;1.10;;;4.10;84.50;;;;;;5011823;28;20113;-48
2023/01/27 12:52:07;;;;;;;3.00;1.30;;;4.10;84.30;;;;;;4995607;28;20030;-49
2023/01/27 12:54:39;;;;;;;5.13;1.38;;;4.10;84.20;;;;;;5012697;28;20034;-47
2023/01/27 12:57:16;;;;;;;7.30;1.77;;;4.10;83.30;;;;;;5012598;28;20034;-48
2023/01/27 12:59:50;;;;;;;2.28;1.23;;;4.10;83.10;;;;;;5011725;28;20034;-49
2023/01/27 13:02:16;;;;;;;6.95;1.98;;;4.00;82.90;;;;;;5020517;28;20109;-48
2023/01/27 13:04:44;;;;;;;5.22;1.98;;;4.10;83.50;;;;;;5024692;28;20108;-52
2023/01/27 13:07:17;;;;;;;4.68;1.80;;;4.20;83.30;;;;;;5014314;28;20048;-54
2023/01/27 13:10:01;;;;;;;5.50;2.85;;;4.20;83.30;;;;;;5013703;28;20056;-51
2023/01/27 13:12:28;;;;;;;3.83;2.05;;;4.20;83.30;;;;;;5030016;28;20026;-48
2023/01/27 13:15:13;;;;;;;4.07;2.45;;;4.10;83.50;;;;;;5012215;28;20068;-46
2023/01/27 13:17:53;;;;;;;2.78;1.95;;;4.10;83.10;;;;;;4997732;28;20157;-48
2023/01/27 13:20:38;;;;;;;4.20;2.40;;;4.10;82.90;;;;;;5024185;28;20040;-48
2023/01/27 13:23:13;;;;;;;3.25;1.92;;;4.20;82.70;;;;;;5030223;28;20108;-51
2023/01/27 13:25:53;;;;;;;3.75;2.35;;;4.20;81.50;;;;;;5030467;28;20038;-48
2023/01/27 13:28:34;;;;;;;3.63;2.17;;;4.20;81.60;;;;;;5012658;28;20029;-48
2023/01/27 13:31:09;;;;;;;3.70;2.47;;;4.40;82.00;;;;;;4986290;28;20037;-52
2023/01/27 13:33:55;;;;;;;4.95;1.58;;;4.40;81.60;;;;;;5021154;28;20038;-47
2023/01/27 13:36:46;;;;;;;5.15;2.35;;;4.40;81.40;;;;;;5013771;28;20042;-48
2023/01/27 13:39:43;;;;;;;3.22;1.90;;;4.40;81.60;;;;;;5031271;28;20043;-50
2023/01/27 13:42:29;;;;;;;2.70;1.63;;;4.30;81.30;;;;;;5015787;28;20025;-47
2023/01/27 13:45:17;;;;;;;3.20;1.38;;;4.30;82.10;;;;;;5015435;28;20022;-53
2023/01/27 13:48:13;;;;;;;2.58;1.70;;;4.30;81.80;;;;;;5015261;28;20333;-48
2023/01/27 13:50:52;;;;;;;2.92;1.65;;;4.30;81.90;;;;;;5015702;28;20140;-52
2023/01/27 13:53:24;;;;;;;2.92;1.20;;;4.20;81.40;;;;;;5014497;28;20589;-53
2023/01/27 13:56:18;;;;;;;2.20;1.20;;;4.20;81.70;;;;;;5014197;28;20026;-48
2023/01/27 13:59:08;;;;;;;3.50;1.33;;;4.20;81.40;;;;;;5014261;28;20033;-47
2023/01/27 14:01:51;;;;;;;2.05;1.25;;;4.20;81.00;;;;;;5014824;28;20053;-52